Time;durP1;ratioP1;P1;durP2;ratioP2;P2;SDS_P1;SDS_P2;PMS_P1;PMS_P2;Temp;Humidity;BMP_temperature;BMP_pressure;BME280_temperature;BME280_humidity;BME280_pressure;Samples;Min_cycle;Max_cycle;Signal;HPM_P1;HPM_P2
2022/04/28 00:00:20;;;;;;;8.40;2.90;;;;;;;11.05;59.07;99830.32;25138;1314;3055376;-64
2022/04/28 00:02:51;;;;;;;10.30;3.30;;;;;;;11.03;59.16;99836.77;25097;1316;3027229;-64
2022/04/28 00:05:20;;;;;;;7.00;3.30;;;;;;;10.98;59.02;99843.02;25163;1316;3026538;-65
2022/04/28 00:07:49;;;;;;;4.80;3.20;;;;;;;11.01;59.05;99841.95;25084;1316;3058038;-63
2022/04/28 00:10:18;;;;;;;4.50;2.70;;;;;;;11.03;58.78;99840.44;25151;1315;3026799;-65
2022/04/28 00:12:51;;;;;;;3.80;2.50;;;;;;;11.01;58.38;99840.05;25099;1316;3052163;-66
2022/04/28 00:15:25;;;;;;;7.70;3.00;;;;;;;11.03;58.27;99840.96;25122;1316;3058001;-66
2022/04/28 00:17:56;;;;;;;4.50;2.80;;;;;;;11.06;57.93;99842.71;25109;1316;3026446;-65
2022/04/28 00:20:25;;;;;;;4.70;2.90;;;;;;;11.04;57.82;99837.60;25114;1314;3027026;-65
2022/04/28 00:22:55;;;;;;;8.20;2.50;;;;;;;11.05;57.62;99842.59;25129;1316;3026525;-65
2022/04/28 00:25:29;;;;;;;4.80;2.90;;;;;;;11.04;57.74;99843.86;25130;1316;3071092;-68
2022/04/28 00:28:01;;;;;;;4.70;3.00;;;;;;;11.01;57.65;99843.16;25164;1315;3026532;-63
2022/04/28 00:30:30;;;;;;;5.60;2.50;;;;;;;10.95;57.50;99846.85;25121;1316;3026705;-65
2022/04/28 00:32:59;;;;;;;6.60;2.90;;;;;;;10.95;57.27;99847.21;25105;1316;3070936;-65
2022/04/28 00:35:28;;;;;;;6.50;2.80;;;;;;;10.97;57.54;99846.02;25150;1316;3027299;-65
2022/04/28 00:37:57;;;;;;;5.20;2.80;;;;;;;10.96;57.18;99846.11;25118;1319;3029032;-65
2022/04/28 00:40:26;;;;;;;5.00;2.70;;;;;;;10.94;57.44;99849.89;25125;1315;3070975;-64
2022/04/28 00:43:18;;;;;;;4.50;2.70;;;;;;;10.88;57.35;99855.13;25132;1316;3051692;-66
2022/04/28 00:45:49;;;;;;;6.40;2.70;;;;;;;10.83;57.34;99853.46;25093;1316;3052305;-63
2022/04/28 00:51:14;;;;;;;5.90;2.70;;;;;;;10.75;57.05;99856.86;25121;1318;3059170;-65
2022/04/28 00:53:46;;;;;;;5.20;2.50;;;;;;;10.77;57.33;99853.25;25027;1318;3026369;-65
2022/04/28 00:56:15;;;;;;;5.50;2.50;;;;;;;10.80;56.82;99850.16;25144;1315;3055518;-63
2022/04/28 00:58:48;;;;;;;4.50;2.70;;;;;;;10.81;56.80;99845.70;25173;1314;3026182;-67
2022/04/28 01:01:17;;;;;;;5.90;2.70;;;;;;;10.78;57.00;99846.74;25112;1316;3026753;-67
2022/04/28 01:03:49;;;;;;;4.90;2.60;;;;;;;10.75;56.78;99840.94;25101;1316;3027490;-62
2022/04/28 01:06:19;;;;;;;3.90;2.50;;;;;;;10.73;57.26;99847.02;25073;1315;3028202;-65
2022/04/28 01:09:03;;;;;;;5.40;2.90;;;;;;;10.72;57.17;99846.89;25119;1315;3070579;-65
2022/04/28 01:11:33;;;;;;;6.40;2.60;;;;;;;10.69;57.03;99847.04;25117;1315;3026698;-64
2022/04/28 01:14:07;;;;;;;4.40;2.50;;;;;;;10.68;57.08;99841.00;25129;1316;3050492;-67
2022/04/28 01:16:45;;;;;;;8.20;2.70;;;;;;;10.60;56.76;99838.80;25116;1314;3055109;-64
2022/04/28 01:19:15;;;;;;;3.50;2.50;;;;;;;10.55;56.57;99835.04;25148;1316;3027169;-64
2022/04/28 01:21:44;;;;;;;4.20;2.50;;;;;;;10.55;56.92;99834.83;25104;1315;3026614;-65
2022/04/28 01:24:24;;;;;;;7.90;2.60;;;;;;;10.56;56.82;99835.48;25090;1316;3056077;-67
2022/04/28 01:26:58;;;;;;;8.80;3.30;;;;;;;10.56;56.70;99838.50;25138;1316;3053923;-65
2022/04/28 01:29:31;;;;;;;8.60;2.80;;;;;;;10.54;56.49;99841.73;25083;1315;3026512;-65
2022/04/28 01:32:01;;;;;;;8.70;3.00;;;;;;;10.53;56.85;99846.33;25101;1316;3027380;-65
2022/04/28 01:34:36;;;;;;;4.10;2.40;;;;;;;10.53;56.67;99843.89;25110;1316;3054492;-65
2022/04/28 01:37:06;;;;;;;4.00;2.60;;;;;;;10.50;56.46;99845.30;25185;1316;3026664;-68
2022/04/28 01:39:36;;;;;;;3.60;2.70;;;;;;;10.49;56.34;99844.45;25148;1315;3049115;-66
2022/04/28 01:42:07;;;;;;;6.70;2.50;;;;;;;10.38;56.77;99846.41;25121;1316;3026738;-63
2022/04/28 01:44:37;;;;;;;5.50;2.70;;;;;;;10.40;56.81;99841.45;25036;1315;3026800;-63
2022/04/28 01:47:07;;;;;;;3.60;2.30;;;;;;;10.41;56.38;99837.71;24974;1315;3027050;-65
2022/04/28 01:50:17;;;;;;;4.30;2.80;;;;;;;10.37;56.55;99835.08;25138;1315;3050299;-65
2022/04/28 01:56:14;;;;;;;4.60;2.30;;;;;;;10.34;56.81;99834.06;25101;1315;3050066;-63
2022/04/28 01:59:04;;;;;;;7.20;2.70;;;;;;;10.30;57.04;99834.27;25067;1315;3070163;-61
2022/04/28 02:01:43;;;;;;;4.30;2.50;;;;;;;10.31;57.06;99840.15;25119;1316;3050509;-65
2022/04/28 02:04:16;;;;;;;4.90;2.80;;;;;;;10.33;57.06;99843.20;25082;1316;3026578;-65
2022/04/28 02:06:45;;;;;;;5.60;2.40;;;;;;;10.30;56.98;99843.49;25095;1316;3026682;-64
2022/04/28 02:09:14;;;;;;;4.80;2.50;;;;;;;10.27;57.24;99847.03;25124;1316;3026267;-66
2022/04/28 02:11:43;;;;;;;4.50;2.50;;;;;;;10.24;57.18;99848.56;25085;1316;3054652;-63
2022/04/28 02:14:40;;;;;;;5.80;2.70;;;;;;;10.24;57.28;99847.69;25069;1316;3052898;-63
2022/04/28 02:17:41;;;;;;;4.20;2.70;;;;;;;10.20;57.05;99845.41;24990;1319;3059489;-64
2022/04/28 02:20:11;;;;;;;5.80;2.90;;;;;;;10.16;57.38;99844.42;25102;1315;3027279;-65
2022/04/28 02:22:42;;;;;;;3.60;2.40;;;;;;;10.12;57.51;99849.02;25102;1316;3052612;-64
2022/04/28 02:25:14;;;;;;;6.70;2.80;;;;;;;10.15;57.18;99860.60;25123;1316;3026511;-63
2022/04/28 02:27:43;;;;;;;4.70;2.50;;;;;;;10.17;56.95;99861.70;25155;1316;3026359;-65
2022/04/28 02:30:12;;;;;;;5.30;2.60;;;;;;;10.15;56.75;99855.32;25113;1316;3054888;-63
2022/04/28 02:33:27;;;;;;;3.30;2.50;;;;;;;10.18;56.97;99857.25;25093;1316;3026611;-64
2022/04/28 02:35:34;;;;;;;6.50;2.60;;;;;;;10.10;57.03;99858.90;25063;1315;3052663;-66
2022/04/28 02:38:03;;;;;;;3.40;2.20;;;;;;;10.15;57.18;99857.77;25085;1316;3026518;-64
2022/04/28 02:40:33;;;;;;;6.40;2.40;;;;;;;10.16;57.01;99859.67;25034;1315;3026971;-64
2022/04/28 02:43:05;;;;;;;5.00;2.50;;;;;;;10.18;57.03;99863.55;25077;1315;3026481;-64
2022/04/28 02:45:34;;;;;;;7.70;2.40;;;;;;;10.19;57.05;99860.73;25130;1316;3026237;-64
2022/04/28 02:48:04;;;;;;;4.60;2.90;;;;;;;10.18;56.92;99865.83;25041;1318;3053658;-65
2022/04/28 02:50:35;;;;;;;4.60;2.80;;;;;;;10.14;57.25;99872.88;25124;1316;3026798;-64
2022/04/28 02:53:06;;;;;;;6.70;2.50;;;;;;;10.10;57.07;99873.27;25085;1319;3026140;-64
2022/04/28 02:55:40;;;;;;;;;;;;;;;10.11;57.40;99873.77;25113;1316;3051558;-65
2022/04/28 02:58:09;;;;;;;3.80;2.70;;;;;;;10.09;57.24;99877.15;25061;1315;3030664;-63
2022/04/28 03:00:38;;;;;;;6.10;3.00;;;;;;;10.12;57.01;99875.81;25110;1316;3026563;-64
2022/04/28 03:03:10;;;;;;;4.70;2.50;;;;;;;10.12;56.95;99875.79;25129;1315;3051855;-62
2022/04/28 03:11:20;;;;;;;4.10;2.80;;;;;;;10.20;56.66;99874.85;25099;1315;3049866;-65
2022/04/28 03:13:52;;;;;;;5.90;2.60;;;;;;;10.20;56.55;99877.15;25115;1316;3026772;-64
2022/04/28 03:16:21;;;;;;;4.40;2.70;;;;;;;10.28;56.41;99875.34;25050;1317;3027887;-65
2022/04/28 03:19:04;;;;;;;4.20;2.80;;;;;;;10.37;55.94;99872.42;25144;1316;3049110;-64
2022/04/28 03:21:40;;;;;;;3.50;2.50;;;;;;;10.42;55.80;99876.89;25132;1316;3053748;-64
2022/04/28 03:24:13;;;;;;;4.30;2.30;;;;;;;10.44;55.61;99876.81;25152;1316;3026866;-65
2022/04/28 03:26:42;;;;;;;4.00;2.30;;;;;;;10.50;55.40;99872.25;25129;1316;3026448;-66
2022/04/28 03:29:15;;;;;;;4.30;2.50;;;;;;;10.55;55.35;99872.13;25123;1316;3026884;-65
2022/04/28 03:31:45;;;;;;;5.30;2.40;;;;;;;10.59;55.12;99875.95;25155;1316;3025878;-64
2022/04/28 03:34:23;;;;;;;;;;;;;;;10.62;54.88;99880.70;25149;1315;3052145;-67
2022/04/28 03:36:55;;;;;;;6.90;3.00;;;;;;;10.65;54.81;99883.36;25136;1316;3057703;-65
2022/04/28 03:39:37;;;;;;;5.70;2.70;;;;;;;10.72;54.81;99888.38;25170;1315;3050856;-63
2022/04/28 03:42:07;;;;;;;4.10;2.40;;;;;;;10.79;54.43;99889.60;25088;1315;3026800;-63
2022/04/28 03:44:44;;;;;;;4.20;2.20;;;;;;;10.85;54.32;99888.58;25214;1316;3051468;-66
2022/04/28 03:47:13;;;;;;;8.80;2.70;;;;;;;10.90;54.13;99897.77;25164;1316;3026881;-65
2022/04/28 03:49:45;;;;;;;6.50;2.80;;;;;;;10.97;53.90;99900.05;25115;1316;3055924;-65
2022/04/28 03:52:20;;;;;;;7.30;3.20;;;;;;;11.04;53.69;99901.03;25086;1315;3051904;-63
2022/04/28 03:54:50;;;;;;;5.70;3.30;;;;;;;11.09;53.22;99904.24;25126;1315;3026604;-65
2022/04/28 03:57:22;;;;;;;7.40;3.30;;;;;;;11.16;53.25;99899.67;25145;1316;3026681;-64
2022/04/28 03:59:52;;;;;;;6.10;3.40;;;;;;;11.18;53.04;99903.23;25094;1315;3030002;-63
2022/04/28 04:02:45;;;;;;;9.40;4.20;;;;;;;11.26;52.98;99904.91;25132;1316;3055073;-64
2022/04/28 04:05:15;;;;;;;5.70;3.30;;;;;;;11.32;52.89;99904.58;25048;1318;3028177;-68
2022/04/28 04:07:46;;;;;;;7.10;3.80;;;;;;;11.38;52.59;99902.80;25137;1316;3028230;-66
2022/04/28 04:10:32;;;;;;;7.80;4.30;;;;;;;11.43;52.45;99907.26;25148;1316;3052129;-65
2022/04/28 04:13:05;;;;;;;6.00;3.60;;;;;;;11.46;52.34;99913.57;25127;1316;3026281;-65
2022/04/28 04:15:35;;;;;;;6.70;3.80;;;;;;;11.50;52.05;99915.31;25114;1315;3028687;-63
2022/04/28 04:18:23;;;;;;;7.60;3.60;;;;;;;11.57;52.04;99918.38;25092;1319;3051539;-62
2022/04/28 04:21:00;;;;;;;9.80;3.80;;;;;;;11.64;51.85;99919.58;25111;1315;3052799;-66
2022/04/28 04:23:34;;;;;;;7.00;4.10;;;;;;;11.69;51.57;99916.50;25099;1315;3055727;-63
2022/04/28 04:26:03;;;;;;;8.20;3.90;;;;;;;11.72;51.39;99916.30;25097;1316;3026089;-62
2022/04/28 04:28:33;;;;;;;6.40;3.60;;;;;;;11.80;51.47;99919.70;25124;1316;3026706;-65
2022/04/28 04:34:07;;;;;;;6.60;3.80;;;;;;;11.86;50.88;99924.64;25110;1316;3054110;-66
2022/04/28 04:36:37;;;;;;;7.90;3.80;;;;;;;11.95;51.02;99927.13;25121;1316;3026719;-63
2022/04/28 04:39:07;;;;;;;7.40;4.00;;;;;;;12.06;50.95;99923.83;25149;1315;3026562;-64
2022/04/28 04:41:43;;;;;;;6.20;3.60;;;;;;;12.11;50.56;99921.42;25137;1315;3051533;-66
2022/04/28 04:44:14;;;;;;;6.00;3.90;;;;;;;12.19;50.43;99929.53;25112;1316;3026562;-66
2022/04/28 04:46:45;;;;;;;5.50;3.20;;;;;;;12.31;50.38;99930.43;25128;1316;3026412;-65
2022/04/28 04:49:38;;;;;;;8.40;3.40;;;;;;;12.35;49.80;99933.00;25146;1316;3053115;-65
2022/04/28 04:52:38;;;;;;;5.20;3.60;;;;;;;12.35;49.68;99936.50;25143;1315;3055577;-67
2022/04/28 04:55:13;;;;;;;5.30;2.90;;;;;;;12.50;49.88;99939.10;25170;1315;3053275;-66
2022/04/28 04:57:49;;;;;;;5.20;3.10;;;;;;;12.54;49.04;99936.73;25111;1315;3070500;-68
2022/04/28 05:00:18;;;;;;;7.40;3.20;;;;;;;12.62;49.23;99938.75;25118;1315;3026851;-66
2022/04/28 05:03:09;;;;;;;5.50;3.00;;;;;;;12.67;48.68;99936.48;25161;1316;3053515;-65
2022/04/28 05:06:13;;;;;;;8.50;3.70;;;;;;;12.69;48.25;99937.25;25067;1316;3069338;-66
2022/04/28 05:09:12;;;;;;;5.60;2.70;;;;;;;12.81;48.40;99940.73;25121;1316;3049643;-65
2022/04/28 05:11:43;;;;;;;7.10;3.10;;;;;;;12.89;48.24;99940.38;25101;1315;3026622;-66
2022/04/28 05:14:15;;;;;;;9.60;2.80;;;;;;;12.98;47.67;99948.66;25156;1315;3026562;-65
2022/04/28 05:16:59;;;;;;;5.70;2.60;;;;;;;13.06;48.09;99950.38;25089;1315;3059428;-67
2022/04/28 05:19:49;;;;;;;7.40;2.70;;;;;;;13.15;47.28;99952.50;25131;1316;3052226;-65
2022/04/28 05:22:37;;;;;;;11.20;3.00;;;;;;;13.22;46.82;99955.05;25140;1316;3055696;-67
2022/04/28 05:25:25;;;;;;;6.80;2.90;;;;;;;13.32;47.02;99952.13;25117;1316;3051844;-66
2022/04/28 05:28:14;;;;;;;7.40;3.20;;;;;;;13.35;46.89;99957.17;25111;1314;3071170;-67
2022/04/28 05:31:06;;;;;;;5.50;2.90;;;;;;;13.40;46.42;99960.91;25114;1316;3051678;-65
2022/04/28 05:34:06;;;;;;;15.00;3.60;;;;;;;13.45;46.52;99959.21;25144;1316;3052776;-64
2022/04/28 05:36:46;;;;;;;7.10;3.40;;;;;;;13.41;46.25;99959.46;25119;1315;3051996;-65
2022/04/28 05:39:17;;;;;;;7.30;3.10;;;;;;;13.46;46.37;99963.89;25102;1315;3026442;-66
2022/04/28 05:41:47;;;;;;;5.40;3.80;;;;;;;13.58;46.27;99962.98;25121;1316;3027405;-65
2022/04/28 05:47:06;;;;;;;10.70;3.70;;;;;;;13.62;45.74;99960.07;25132;1316;3053927;-65
2022/04/28 05:49:36;;;;;;;4.60;3.00;;;;;;;13.67;45.42;99964.69;25121;1316;3026615;-67
2022/04/28 05:52:07;;;;;;;9.80;3.30;;;;;;;13.78;45.79;99966.61;25162;1315;3026576;-65
2022/04/28 05:54:40;;;;;;;12.30;3.50;;;;;;;13.88;45.38;99966.15;25134;1316;3027385;-68
2022/04/28 05:57:11;;;;;;;5.70;3.00;;;;;;;13.95;45.62;99965.14;25137;1315;3026240;-66
2022/04/28 05:59:44;;;;;;;11.00;3.30;;;;;;;13.92;45.51;99963.88;25075;1315;3058539;-67
2022/04/28 06:02:34;;;;;;;9.80;3.00;;;;;;;13.97;45.03;99965.83;25110;1316;3051489;-64
2022/04/28 06:05:04;;;;;;;9.80;3.20;;;;;;;14.08;44.72;99969.89;25151;1315;3026616;-66
2022/04/28 06:07:39;;;;;;;7.80;2.80;;;;;;;14.19;44.71;99971.23;25079;1315;3053806;-65
2022/04/28 06:10:22;;;;;;;5.30;2.70;;;;;;;14.31;43.79;99974.30;25115;1315;3069070;-69
2022/04/28 06:12:57;;;;;;;9.30;3.40;;;;;;;14.42;43.90;99973.44;25109;1315;3049224;-66
2022/04/28 06:15:43;;;;;;;5.90;2.70;;;;;;;14.46;43.33;99978.98;25141;1315;3055403;-65
2022/04/28 06:18:31;;;;;;;5.30;2.80;;;;;;;14.54;42.77;99979.48;25125;1316;3053942;-66
2022/04/28 06:21:10;;;;;;;11.30;2.70;;;;;;;14.65;42.68;99978.53;25064;1315;3059890;-65
2022/04/28 06:23:45;;;;;;;9.00;2.90;;;;;;;14.69;42.30;99977.77;25160;1315;3050636;-66
2022/04/28 06:26:15;;;;;;;13.20;2.80;;;;;;;14.72;42.23;99977.41;25103;1315;3026683;-66
2022/04/28 06:28:45;;;;;;;6.80;2.80;;;;;;;14.69;42.75;99982.12;25091;1316;3026942;-65
2022/04/28 06:31:15;;;;;;;9.20;2.60;;;;;;;14.78;42.00;99982.98;25129;1316;3026637;-66
2022/04/28 06:33:56;;;;;;;6.50;2.40;;;;;;;14.84;42.12;99985.34;25120;1315;3052544;-64
2022/04/28 06:36:34;;;;;;;6.00;2.40;;;;;;;14.84;40.85;99980.92;25082;1315;3053786;-64
2022/04/28 06:39:04;;;;;;;8.80;2.30;;;;;;;14.92;40.83;99979.64;25047;1316;3026561;-66
2022/04/28 06:41:37;;;;;;;9.00;2.20;;;;;;;15.03;40.61;99977.14;25140;1315;3029982;-63
2022/04/28 06:44:21;;;;;;;6.80;2.50;;;;;;;15.07;39.23;99971.93;25098;1315;3050120;-65
2022/04/28 06:46:57;;;;;;;7.60;1.90;;;;;;;15.04;39.20;99974.57;25152;1314;3053195;-64
2022/04/28 06:49:44;;;;;;;5.30;2.20;;;;;;;15.11;39.72;99970.25;25159;1316;3054581;-65
2022/04/28 06:52:23;;;;;;;5.60;2.30;;;;;;;15.24;40.32;99973.18;25146;1316;3070019;-63
2022/04/28 06:55:15;;;;;;;7.20;2.00;;;;;;;15.34;39.53;99971.91;25071;1315;3051992;-65
2022/04/28 06:57:45;;;;;;;3.70;1.70;;;;;;;15.50;39.12;99972.40;25123;1316;3026483;-67
2022/04/28 07:00:29;;;;;;;9.20;2.00;;;;;;;15.41;38.30;99973.70;25117;1315;3053599;-66
2022/04/28 07:03:20;;;;;;;4.20;2.10;;;;;;;15.53;38.92;99971.82;25056;1315;3057135;-63
2022/04/28 07:05:50;;;;;;;10.30;1.80;;;;;;;15.60;38.19;99973.77;25055;1318;3026776;-65
2022/04/28 07:08:22;;;;;;;7.40;2.10;;;;;;;15.72;38.07;99970.35;25001;1315;3054849;-65
2022/04/28 07:10:54;;;;;;;6.80;2.00;;;;;;;15.84;37.66;99976.78;25135;1316;3026469;-64
2022/04/28 07:13:25;;;;;;;2.90;1.30;;;;;;;15.81;36.97;99976.10;25039;1315;3027103;-64
2022/04/28 07:16:14;;;;;;;7.30;1.80;;;;;;;15.90;36.68;99983.18;25034;1315;3052310;-67
2022/04/28 07:19:15;;;;;;;9.30;1.50;;;;;;;16.00;36.87;99983.70;25023;1316;3052564;-67
2022/04/28 07:21:48;;;;;;;3.40;1.50;;;;;;;16.06;36.99;99979.21;25040;1315;3028582;-64
2022/04/28 07:24:17;;;;;;;4.20;1.60;;;;;;;16.17;36.51;99981.17;25025;1318;3026511;-67
2022/04/28 07:26:47;;;;;;;10.30;1.50;;;;;;;16.18;36.42;99980.08;25055;1318;3026628;-65
2022/04/28 07:29:17;;;;;;;4.20;1.70;;;;;;;16.34;36.91;99983.77;25132;1316;3026697;-67
2022/04/28 07:32:09;;;;;;;3.40;1.70;;;;;;;16.41;35.78;99987.54;25165;1316;3053657;-66
2022/04/28 07:35:19;;;;;;;5.70;1.40;;;;;;;16.36;35.28;99979.77;24976;1319;3071293;-68
2022/04/28 07:38:08;;;;;;;4.70;1.50;;;;;;;16.42;34.70;99982.81;25020;1319;3049814;-66
2022/04/28 07:40:44;;;;;;;11.20;1.10;;;;;;;16.55;34.87;99977.94;25057;1315;3052632;-66
2022/04/28 07:43:20;;;;;;;4.90;1.10;;;;;;;16.72;35.13;99973.44;25139;1316;3053818;-67
2022/04/28 07:45:50;;;;;;;10.10;1.70;;;;;;;16.93;35.57;99973.80;25100;1316;3026115;-63
2022/04/28 07:48:24;;;;;;;3.90;1.40;;;;;;;17.07;35.25;99977.66;25059;1316;3026649;-67
2022/04/28 07:50:53;;;;;;;8.70;1.60;;;;;;;17.11;35.38;99973.63;25063;1316;3026959;-66
2022/04/28 07:53:43;;;;;;;4.00;1.40;;;;;;;17.28;35.54;99963.02;25179;1316;3053823;-69
2022/04/28 07:56:18;;;;;;;3.30;1.10;;;;;;;17.43;34.48;99963.27;25094;1315;3027240;-66
2022/04/28 07:58:50;;;;;;;4.20;1.20;;;;;;;17.55;34.67;99963.84;25073;1315;3048166;-70
2022/04/28 08:01:34;;;;;;;;;;;;;;;17.65;33.86;99955.48;25109;1316;3055237;-66
2022/04/28 08:04:03;;;;;;;1.90;1.40;;;;;;;17.53;34.06;99957.45;25163;1315;3027162;-63
2022/04/28 08:06:33;;;;;;;6.20;1.30;;;;;;;17.69;34.08;99951.75;25286;1314;3027922;-66
2022/04/28 08:09:02;;;;;;;3.30;1.20;;;;;;;17.82;33.94;99959.87;25394;1316;3026207;-66
2022/04/28 08:11:32;;;;;;;5.80;1.30;;;;;;;17.88;33.51;99961.70;25299;1316;3028171;-65
2022/04/28 08:14:02;;;;;;;6.60;1.00;;;;;;;17.97;32.48;99963.50;25119;1314;3026303;-67
2022/04/28 08:16:37;;;;;;;4.20;1.10;;;;;;;18.04;31.69;99959.19;25152;1316;3026697;-67
2022/04/28 08:19:09;;;;;;;5.50;1.30;;;;;;;18.10;32.35;99953.71;25077;1315;3027260;-65
2022/04/28 08:21:52;;;;;;;6.30;1.20;;;;;;;18.25;32.02;99952.45;25151;1316;3051055;-63
2022/04/28 08:24:22;;;;;;;3.10;1.30;;;;;;;18.37;32.51;99955.30;25083;1315;3029213;-67
2022/04/28 08:26:55;;;;;;;4.70;1.40;;;;;;;18.47;31.75;99959.84;25147;1315;3052386;-65
2022/04/28 08:29:25;;;;;;;1.30;0.90;;;;;;;18.42;31.00;99959.36;25174;1315;3026630;-67
2022/04/28 08:32:04;;;;;;;3.20;1.00;;;;;;;18.53;30.46;99955.72;25075;1315;3055068;-66
2022/04/28 08:34:34;;;;;;;4.00;1.00;;;;;;;18.59;30.41;99950.92;25121;1316;3026559;-66
2022/04/28 08:37:11;;;;;;;2.00;1.00;;;;;;;18.67;30.60;99952.25;25101;1314;3051326;-66
2022/04/28 08:39:41;;;;;;;2.80;1.40;;;;;;;18.88;31.02;99953.11;25131;1315;3027478;-66
2022/04/28 08:42:13;;;;;;;5.20;1.20;;;;;;;18.94;29.49;99944.71;25080;1315;3027343;-65
2022/04/28 08:44:58;;;;;;;2.90;0.90;;;;;;;18.93;28.98;99941.24;25150;1316;3070273;-67
2022/04/28 08:47:47;;;;;;;3.40;1.00;;;;;;;19.09;29.25;99947.70;25137;1316;3053492;-66
2022/04/28 08:50:44;;;;;;;3.80;1.10;;;;;;;19.01;27.98;99951.21;25085;1315;3055562;-66
2022/04/28 08:53:35;;;;;;;1.90;1.00;;;;;;;18.93;28.30;99951.75;25099;1317;3055172;-66
2022/04/28 08:56:05;;;;;;;4.40;0.80;;;;;;;19.00;28.86;99944.73;25135;1315;3025961;-67
2022/04/28 08:58:37;;;;;;;3.80;1.00;;;;;;;19.10;28.97;99943.16;25077;1316;3027121;-70
2022/04/28 09:01:09;;;;;;;;;;;;;;;19.20;28.92;99941.21;25023;1318;3055609;-66
2022/04/28 09:04:01;;;;;;;2.70;1.10;;;;;;;19.30;29.13;99943.67;25097;1315;3053890;-69
2022/04/28 09:06:52;;;;;;;5.90;0.90;;;;;;;19.41;28.93;99944.87;25145;1316;3069152;-66
2022/04/28 09:09:47;;;;;;;3.80;0.90;;;;;;;19.66;28.34;99948.98;25107;1316;3052165;-67
2022/04/28 09:12:56;;;;;;;3.10;1.20;;;;;;;19.72;27.10;99941.34;25150;1314;3055007;-65
2022/04/28 09:15:44;;;;;;;6.50;0.90;;;;;;;19.55;26.79;99940.53;25097;1315;3054159;-66
2022/04/28 09:18:21;;;;;;;2.00;0.90;;;;;;;19.74;27.17;99935.05;25056;1315;3057485;-68
2022/04/28 09:20:53;;;;;;;2.20;1.00;;;;;;;19.75;27.04;99940.14;25047;1315;3026641;-67
2022/04/28 09:23:24;;;;;;;1.80;0.80;;;;;;;19.81;27.01;99935.16;25070;1318;3026618;-68
2022/04/28 09:25:57;;;;;;;2.50;0.90;;;;;;;19.78;27.10;99933.46;25181;1315;3028410;-66
2022/04/28 09:28:26;;;;;;;1.60;1.00;;;;;;;19.81;27.00;99935.75;25101;1315;3030582;-68
2022/04/28 09:30:57;;;;;;;3.50;1.00;;;;;;;19.93;27.06;99934.43;25111;1315;3026660;-68
2022/04/28 09:33:41;;;;;;;1.90;1.00;;;;;;;19.99;26.38;99936.05;25076;1315;3052298;-69
2022/04/28 09:36:42;;;;;;;2.90;1.00;;;;;;;20.18;26.84;99933.55;25097;1316;3055102;-65
2022/04/28 09:42:30;;;;;;;2.70;0.90;;;;;;;20.28;25.91;99923.01;25098;1315;3050038;-70
2022/04/28 09:45:00;;;;;;;2.50;0.90;;;;;;;20.24;25.60;99926.81;25171;1316;3055156;-69
2022/04/28 09:47:35;;;;;;;1.20;0.90;;;;;;;20.25;25.53;99931.27;25047;1318;3051515;-66
2022/04/28 09:50:16;;;;;;;2.30;0.90;;;;;;;20.38;25.42;99928.65;25092;1315;3026617;-65
2022/04/28 09:53:08;;;;;;;2.40;1.10;;;;;;;20.48;24.87;99923.83;25106;1315;3051821;-68
2022/04/28 09:56:05;;;;;;;3.00;0.90;;;;;;;20.61;25.03;99920.82;25127;1315;3056473;-67
2022/04/28 09:58:54;;;;;;;5.30;1.00;;;;;;;20.71;24.90;99926.85;25087;1315;3055249;-64
2022/04/28 10:01:25;;;;;;;2.60;0.80;;;;;;;20.88;25.03;99921.87;25062;1315;3027071;-66
2022/04/28 10:03:58;;;;;;;3.40;1.20;;;;;;;20.86;25.10;99923.77;25074;1316;3052410;-66
2022/04/28 10:06:40;;;;;;;4.30;1.00;;;;;;;21.06;24.81;99930.58;25070;1315;3055876;-71
2022/04/28 10:09:35;;;;;;;4.00;1.10;;;;;;;20.86;24.29;99928.57;25105;1316;3053944;-65
2022/04/28 10:12:18;;;;;;;2.30;1.00;;;;;;;20.80;24.41;99933.63;25059;1318;3071179;-68
2022/04/28 10:15:24;;;;;;;2.00;1.00;;;;;;;20.56;24.24;99927.89;25041;1319;3052219;-67
2022/04/28 10:18:04;;;;;;;2.40;1.00;;;;;;;20.55;24.05;99922.80;25076;1316;3053065;-68
2022/04/28 10:20:42;;;;;;;3.70;0.90;;;;;;;20.75;24.20;99926.56;25101;1316;3055358;-67
2022/04/28 10:23:12;;;;;;;3.30;1.00;;;;;;;20.98;24.35;99920.36;25056;1316;3026148;-62
2022/04/28 10:35:03;;;;;;;3.80;1.10;;;;;;;21.44;23.46;99933.10;25158;1316;3071790;-71
2022/04/28 10:37:42;;;;;;;1.10;0.90;;;;;;;21.62;23.25;99929.27;25101;1316;3051888;-69
2022/04/28 10:40:20;;;;;;;5.30;0.90;;;;;;;21.67;23.50;99923.45;25169;1316;3026343;-69
2022/04/28 10:42:50;;;;;;;4.70;1.40;;;;;;;21.61;23.31;99924.73;25117;1316;3054742;-69
2022/04/28 10:45:28;;;;;;;6.40;1.00;;;;;;;21.78;23.01;99923.95;25169;1315;3026900;-69
2022/04/28 10:48:27;;;;;;;3.10;1.00;;;;;;;21.95;22.81;99929.13;25095;1316;3050500;-68
2022/04/28 10:51:17;;;;;;;1.40;0.80;;;;;;;22.01;22.75;99924.32;25128;1316;3053572;-69
2022/04/28 10:54:02;;;;;;;1.00;0.90;;;;;;;22.17;22.59;99929.98;25155;1316;3055147;-68
2022/04/28 10:56:44;;;;;;;3.90;1.20;;;;;;;22.13;22.47;99927.37;25104;1316;3071117;-70
2022/04/28 10:59:34;;;;;;;2.00;1.20;;;;;;;22.14;22.72;99920.06;25123;1315;3051942;-68
2022/04/28 11:02:15;;;;;;;2.30;1.20;;;;;;;22.21;22.58;99917.60;25095;1315;3051216;-65
2022/04/28 11:05:03;;;;;;;3.30;1.10;;;;;;;22.41;22.53;99923.94;25125;1316;3055082;-69
2022/04/28 11:07:35;;;;;;;2.40;1.10;;;;;;;22.35;21.39;99918.16;25170;1316;3056827;-70
2022/04/28 11:10:10;;;;;;;7.40;1.30;;;;;;;22.23;22.23;99912.77;25148;1315;3052844;-68
2022/04/28 11:12:47;;;;;;;3.60;0.90;;;;;;;22.46;22.34;99921.18;25050;1318;3054115;-65
2022/04/28 11:15:18;;;;;;;1.80;0.80;;;;;;;22.43;21.65;99915.52;25063;1315;3026340;-66
2022/04/28 11:17:48;;;;;;;5.90;1.10;;;;;;;22.36;21.31;99916.96;25094;1316;3026290;-70
2022/04/28 11:20:21;;;;;;;2.30;1.00;;;;;;;22.37;20.72;99922.11;25154;1316;3027447;-69
2022/04/28 11:23:06;;;;;;;4.60;1.10;;;;;;;22.20;20.80;99915.58;25107;1315;3055375;-68
2022/04/28 11:25:35;;;;;;;5.20;1.00;;;;;;;22.44;21.14;99917.09;25156;1316;3026322;-68
2022/04/28 11:28:09;;;;;;;2.30;1.00;;;;;;;22.62;21.04;99914.86;25104;1316;3026775;-66
2022/04/28 11:30:41;;;;;;;4.20;1.80;;;;;;;22.77;20.92;99917.19;25100;1315;3026474;-68
2022/04/28 11:33:13;;;;;;;4.50;2.00;;;;;;;22.77;20.87;99908.48;25108;1315;3026778;-70
2022/04/28 11:35:42;;;;;;;5.60;3.20;;;;;;;22.49;21.13;99906.20;25133;1316;3026486;-69
2022/04/28 11:38:13;;;;;;;2.20;1.30;;;;;;;22.60;20.87;99899.80;25165;1315;3029018;-68
2022/04/28 11:40:57;;;;;;;3.50;1.30;;;;;;;22.71;20.87;99897.61;25146;1313;3027383;-66
2022/04/28 11:43:34;;;;;;;1.70;0.80;;;;;;;22.74;20.35;99900.21;25134;1315;3051008;-72
2022/04/28 11:46:05;;;;;;;1.80;0.90;;;;;;;22.39;20.33;99899.38;25131;1316;3053697;-69
2022/04/28 11:48:36;;;;;;;2.00;0.90;;;;;;;22.25;20.59;99892.54;25140;1316;3026639;-68
2022/04/28 11:52:23;;;;;;;4.30;0.80;;;;;;;22.31;20.93;99887.02;31582;1318;3026117;-70
2022/04/28 11:55:08;;;;;;;2.60;1.10;;;;;;;22.75;21.25;99885.56;24974;1319;3052340;-69
2022/04/28 11:57:40;;;;;;;6.40;1.20;;;;;;;23.08;20.81;99876.29;24994;1321;3055086;-71
2022/04/28 12:00:14;;;;;;;2.80;1.00;;;;;;;23.08;20.99;99873.89;24992;1319;3026878;-72
2022/04/28 12:02:44;;;;;;;3.60;1.50;;;;;;;23.16;21.05;99869.17;24998;1319;3026452;-70
2022/04/28 12:05:18;;;;;;;2.90;1.20;;;;;;;23.04;21.69;99873.27;24845;1318;3269197;-71
2022/04/28 12:07:52;;;;;;;6.60;1.10;;;;;;;23.37;21.23;99873.13;25051;1318;3052195;-67
2022/04/28 12:19:19;;;;;;;2.00;1.00;;;;;;;23.46;19.90;99869.02;25060;1317;3054933;-70
2022/04/28 12:19:19;;;;;;;2.50;1.00;;;;;;;23.62;19.73;99869.63;25106;1317;3055457;-69
2022/04/28 12:21:49;;;;;;;2.10;0.80;;;;;;;23.94;19.28;99870.02;25130;1318;3059390;-70
2022/04/28 12:24:19;;;;;;;4.10;1.10;;;;;;;24.14;19.05;99866.22;25133;1316;3026998;-72
2022/04/28 12:26:51;;;;;;;2.00;0.90;;;;;;;24.14;19.30;99866.93;25378;1318;3052950;-69
2022/04/28 12:29:26;;;;;;;2.80;0.90;;;;;;;24.02;19.40;99864.48;25460;1318;3058995;-68
2022/04/28 12:31:56;;;;;;;4.00;1.00;;;;;;;23.79;19.89;99863.40;25269;1316;3027229;-73
2022/04/28 12:34:28;;;;;;;2.70;1.00;;;;;;;23.79;19.95;99864.30;25101;1318;3026458;-69
2022/04/28 12:37:01;;;;;;;2.80;0.80;;;;;;;23.92;19.57;99862.04;25088;1318;3026877;-72